createdAt,value
2022-10-26T00:00:00.600Z,23.97
2022-10-26T00:02:23.187Z,20.03
2022-10-26T00:04:45.601Z,24.17
2022-10-26T00:07:07.984Z,27.70
2022-10-26T00:09:30.894Z,23.40
2022-10-26T00:11:53.821Z,25.08
2022-10-26T00:14:16.297Z,23.15
2022-10-26T00:16:38.669Z,34.45
2022-10-26T00:19:01.046Z,46.22
2022-10-26T00:21:23.441Z,56.50
2022-10-26T00:23:45.929Z,60.20
2022-10-26T00:26:08.789Z,52.90
2022-10-26T00:28:31.262Z,31.90
2022-10-26T00:30:53.717Z,70.67
2022-10-26T00:33:16.101Z,43.77
2022-10-26T00:35:45.951Z,39.27
2022-10-26T00:38:08.956Z,76.20
2022-10-26T00:40:31.323Z,42.75
2022-10-26T00:42:53.954Z,54.72
2022-10-26T00:45:21.523Z,32.40
2022-10-26T00:47:46.107Z,75.45
2022-10-26T00:50:20.202Z,35.72
2022-10-26T00:52:42.572Z,92.85
2022-10-26T00:55:06.327Z,72.13
2022-10-26T00:57:28.754Z,26.98
2022-10-26T00:59:52.002Z,108.47
2022-10-26T01:02:14.358Z,95.45
2022-10-26T01:04:36.745Z,41.00
2022-10-26T01:06:59.198Z,116.50
2022-10-26T01:09:21.561Z,22.87
2022-10-26T01:11:44.034Z,28.67
2022-10-26T01:14:08.590Z,69.82
2022-10-26T01:16:49.590Z,22.83
2022-10-26T01:19:24.118Z,22.33
2022-10-26T01:22:03.673Z,28.58
2022-10-26T01:24:58.314Z,32.25
2022-10-26T01:27:43.469Z,30.48
2022-10-26T01:30:36.667Z,47.70
2022-10-26T01:33:13.712Z,33.37
2022-10-26T01:35:53.838Z,51.47
2022-10-26T01:38:49.436Z,131.80
2022-10-26T01:41:23.763Z,61.30
2022-10-26T01:44:16.683Z,48.83
2022-10-26T01:46:42.504Z,84.38
2022-10-26T01:49:08.818Z,62.95
2022-10-26T01:51:31.219Z,87.85
2022-10-26T01:53:53.677Z,105.30
2022-10-26T01:56:25.514Z,88.38
2022-10-26T01:59:11.224Z,78.80
2022-10-26T02:01:49.037Z,73.75
2022-10-26T02:07:37.741Z,49.38
2022-10-26T02:10:54.430Z,49.92
2022-10-26T02:13:31.489Z,68.72
2022-10-26T02:15:59.344Z,66.57
2022-10-26T02:18:33.390Z,78.13
2022-10-26T02:21:00.066Z,68.97
2022-10-26T02:23:23.949Z,50.20
2022-10-26T02:25:49.879Z,40.55
2022-10-26T02:28:17.792Z,41.35
2022-10-26T02:30:40.193Z,41.28
2022-10-26T02:33:02.553Z,35.67
2022-10-26T02:35:29.460Z,36.00
2022-10-26T02:37:52.457Z,32.88
2022-10-26T02:40:19.598Z,40.65
2022-10-26T02:42:43.200Z,27.45
2022-10-26T02:45:08.708Z,24.08
2022-10-26T02:47:31.094Z,28.02
2022-10-26T02:49:54.191Z,32.73
2022-10-26T02:52:57.248Z,29.52
2022-10-26T02:55:27.464Z,28.77
2022-10-26T02:57:52.929Z,31.48
2022-10-26T03:00:16.959Z,30.75
2022-10-26T03:02:39.359Z,26.75
2022-10-26T03:05:25.959Z,28.10
2022-10-26T03:07:48.320Z,26.00
2022-10-26T03:10:11.312Z,27.40
2022-10-26T03:12:33.658Z,35.38
2022-10-26T03:14:55.983Z,31.70
2022-10-26T03:17:18.294Z,18.77
2022-10-26T03:19:40.634Z,29.13
2022-10-26T03:22:02.968Z,26.87
2022-10-26T03:24:25.349Z,29.02
2022-10-26T03:26:47.736Z,32.88
2022-10-26T03:29:10.127Z,34.50
2022-10-26T03:31:32.522Z,36.07
2022-10-26T03:33:54.850Z,39.67
2022-10-26T03:36:17.196Z,49.10
2022-10-26T03:38:39.540Z,53.13
2022-10-26T03:41:01.953Z,56.70
2022-10-26T03:43:24.399Z,51.73
2022-10-26T03:45:46.743Z,52.72
2022-10-26T03:48:10.466Z,60.65
2022-10-26T03:50:32.792Z,63.88
2022-10-26T03:52:55.193Z,58.60
2022-10-26T03:55:17.659Z,65.37
2022-10-26T03:57:46.305Z,63.80
2022-10-26T04:00:15.393Z,61.47
2022-10-26T04:02:37.822Z,59.45
2022-10-26T04:05:00.234Z,49.90
2022-10-26T04:07:22.623Z,39.10
2022-10-26T04:09:44.973Z,40.43
2022-10-26T04:12:07.622Z,38.17
2022-10-26T04:14:30.009Z,43.65
2022-10-26T04:16:52.380Z,44.37
2022-10-26T04:19:14.761Z,44.50
2022-10-26T04:21:37.245Z,39.20
2022-10-26T04:23:59.704Z,40.85
2022-10-26T04:26:22.071Z,37.90
2022-10-26T04:28:44.519Z,39.55
2022-10-26T04:31:06.967Z,38.13
2022-10-26T04:33:29.329Z,36.38
2022-10-26T04:35:51.716Z,49.70
2022-10-26T04:38:14.081Z,33.87
2022-10-26T04:40:36.544Z,41.67
2022-10-26T04:42:59.179Z,34.03
2022-10-26T04:45:21.842Z,27.63
2022-10-26T04:47:44.309Z,24.23
2022-10-26T04:50:07.515Z,27.10
2022-10-26T04:52:29.880Z,28.27
2022-10-26T04:54:52.226Z,29.45
2022-10-26T04:57:14.600Z,32.80
2022-10-26T04:59:37.473Z,41.73
2022-10-26T05:02:00.009Z,35.53
2022-10-26T05:04:22.432Z,33.22
2022-10-26T05:06:44.840Z,43.03
2022-10-26T05:09:07.327Z,29.50
2022-10-26T05:11:29.724Z,32.85
2022-10-26T05:13:52.070Z,31.60
2022-10-26T05:16:16.393Z,31.83
2022-10-26T05:18:38.725Z,21.60
2022-10-26T05:21:01.155Z,21.50
2022-10-26T05:23:23.671Z,25.70
2022-10-26T05:25:46.165Z,22.80
2022-10-26T05:28:11.838Z,32.92
2022-10-26T05:30:34.200Z,20.67
2022-10-26T05:32:57.718Z,40.20
2022-10-26T05:35:20.113Z,28.00
2022-10-26T05:37:42.525Z,22.30
2022-10-26T05:40:05.631Z,19.48
2022-10-26T05:42:28.003Z,33.03
2022-10-26T05:44:50.321Z,23.20
2022-10-26T05:47:13.047Z,18.05
2022-10-26T05:49:35.453Z,19.42
2022-10-26T05:51:57.793Z,21.67
2022-10-26T05:54:20.143Z,35.53
2022-10-26T05:56:42.876Z,27.63
2022-10-26T05:59:14.369Z,34.10
2022-10-26T06:02:03.052Z,33.13
2022-10-26T06:04:38.950Z,37.15
2022-10-26T06:07:01.537Z,35.47
2022-10-26T06:09:24.262Z,38.42
2022-10-26T06:11:47.121Z,45.85
2022-10-26T06:14:10.228Z,43.15
2022-10-26T06:17:01.916Z,65.55
2022-10-26T06:19:56.256Z,70.03
2022-10-26T06:22:52.292Z,50.70
2022-10-26T06:25:45.804Z,49.25
2022-10-26T06:28:51.732Z,40.47
2022-10-26T06:31:14.188Z,40.83
2022-10-26T06:33:36.549Z,43.90
2022-10-26T06:36:19.103Z,80.27
2022-10-26T06:38:44.504Z,62.65
2022-10-26T06:41:07.040Z,51.35
2022-10-26T06:43:34.469Z,35.72
2022-10-26T06:46:33.667Z,26.27
2022-10-26T06:49:23.603Z,51.47
2022-10-26T06:52:34.666Z,20.40
2022-10-26T06:54:57.832Z,30.30
2022-10-26T06:57:22.278Z,54.80
2022-10-26T06:59:58.024Z,19.13
2022-10-26T07:02:20.999Z,55.00
2022-10-26T07:04:44.047Z,37.35
2022-10-26T07:07:06.446Z,33.42
2022-10-26T07:09:28.839Z,17.47
2022-10-26T07:11:51.249Z,37.30
2022-10-26T07:14:13.584Z,25.50
2022-10-26T07:16:35.956Z,19.83
2022-10-26T07:18:58.317Z,55.97
2022-10-26T07:21:20.655Z,44.63
2022-10-26T07:23:43.017Z,39.45
2022-10-26T07:26:05.553Z,53.47
2022-10-26T07:28:27.997Z,32.85
2022-10-26T07:30:55.292Z,44.50
2022-10-26T07:33:19.492Z,33.65
2022-10-26T07:35:42.012Z,30.35
2022-10-26T07:38:04.805Z,27.80
2022-10-26T07:40:27.353Z,32.20
2022-10-26T07:42:50.039Z,29.42
2022-10-26T07:45:12.739Z,36.05
2022-10-26T07:47:35.145Z,35.93
2022-10-26T07:49:57.545Z,29.98
2022-10-26T07:52:19.892Z,55.37
2022-10-26T07:54:42.312Z,20.73
2022-10-26T07:59:27.999Z,20.17
2022-10-26T08:01:50.416Z,23.40
2022-10-26T08:04:12.906Z,28.75
2022-10-26T08:06:35.351Z,25.63
2022-10-26T08:08:57.763Z,36.37
2022-10-26T08:11:20.196Z,29.63
2022-10-26T08:13:42.838Z,54.27
2022-10-26T08:16:05.988Z,30.95
2022-10-26T08:18:28.356Z,37.65
2022-10-26T08:20:50.743Z,31.30
2022-10-26T08:23:13.107Z,34.87
2022-10-26T08:25:35.715Z,32.73
2022-10-26T08:28:04.610Z,29.58
2022-10-26T08:30:27.008Z,29.98
2022-10-26T08:32:49.605Z,24.67
2022-10-26T08:35:12.278Z,26.75
2022-10-26T08:37:34.961Z,24.63
2022-10-26T08:39:58.445Z,22.42
2022-10-26T08:42:37.709Z,39.15
2022-10-26T08:45:05.028Z,31.45
2022-10-26T08:47:43.907Z,26.30
2022-10-26T08:50:22.003Z,24.85
2022-10-26T08:53:06.243Z,22.45
2022-10-26T08:55:34.965Z,19.52
2022-10-26T08:57:57.713Z,23.60
2022-10-26T09:00:22.837Z,24.60
2022-10-26T09:02:45.229Z,24.77
2022-10-26T09:05:16.829Z,26.90
2022-10-26T09:08:12.633Z,28.45
2022-10-26T09:10:47.665Z,30.33
2022-10-26T09:13:25.386Z,30.17
2022-10-26T09:16:27.419Z,36.78
2022-10-26T09:19:14.695Z,32.20
2022-10-26T09:21:48.435Z,32.30
2022-10-26T09:24:36.168Z,22.92
2022-10-26T09:27:30.255Z,23.45
2022-10-26T09:32:25.673Z,21.80
2022-10-26T09:35:21.070Z,18.50
2022-10-26T09:37:49.445Z,21.63
2022-10-26T09:40:50.906Z,20.88
2022-10-26T09:43:17.400Z,23.35
2022-10-26T09:45:42.763Z,18.42
2022-10-26T09:48:18.992Z,22.35
2022-10-26T09:50:43.977Z,17.77
2022-10-26T09:53:06.462Z,21.52
2022-10-26T09:55:31.284Z,24.55
2022-10-26T09:57:56.342Z,24.45
2022-10-26T10:00:21.637Z,20.23
2022-10-26T10:02:45.759Z,23.25
2022-10-26T10:05:52.197Z,23.15
2022-10-26T10:08:25.646Z,22.23
2022-10-26T10:11:07.276Z,25.20
2022-10-26T10:13:34.544Z,28.63
2022-10-26T10:16:10.758Z,23.83
2022-10-26T10:18:33.307Z,23.75
2022-10-26T10:20:57.868Z,23.75
2022-10-26T10:23:36.527Z,28.88
2022-10-26T10:26:08.313Z,24.73
2022-10-26T10:28:30.966Z,28.92
2022-10-26T10:31:01.703Z,26.92
2022-10-26T10:33:24.568Z,26.33
2022-10-26T10:35:53.185Z,24.35
2022-10-26T10:38:21.053Z,26.65
2022-10-26T10:40:43.488Z,33.67
2022-10-26T10:43:12.658Z,28.10
2022-10-26T10:45:35.229Z,27.38
2022-10-26T10:48:16.676Z,26.40
2022-10-26T10:50:50.977Z,26.77
2022-10-26T10:53:19.914Z,29.13
2022-10-26T10:55:44.027Z,28.50
2022-10-26T10:58:27.710Z,22.05
2022-10-26T11:00:50.077Z,25.45
2022-10-26T11:03:25.924Z,25.27
2022-10-26T11:06:21.738Z,27.10
2022-10-26T11:08:50.555Z,28.10
2022-10-26T11:11:27.400Z,23.95
2022-10-26T11:14:16.120Z,24.95
2022-10-26T11:16:49.123Z,25.65
2022-10-26T11:19:40.676Z,28.50
2022-10-26T11:22:03.701Z,26.92
2022-10-26T11:24:52.972Z,29.88
2022-10-26T11:27:37.142Z,31.92
2022-10-26T11:30:14.040Z,28.30
2022-10-26T11:32:50.642Z,30.20
2022-10-26T11:35:38.369Z,31.48
2022-10-26T11:38:20.758Z,26.23
2022-10-26T11:41:11.733Z,28.83
2022-10-26T11:44:10.780Z,29.35
2022-10-26T11:47:01.453Z,28.23
2022-10-26T11:49:51.203Z,31.48
2022-10-26T11:52:22.735Z,27.88
2022-10-26T11:55:00.581Z,29.88
2022-10-26T11:57:24.055Z,30.20
2022-10-26T11:59:51.141Z,29.80
2022-10-26T12:02:23.308Z,28.45
2022-10-26T12:04:50.258Z,30.73
2022-10-26T12:07:20.770Z,27.50
2022-10-26T12:09:43.976Z,32.85
2022-10-26T12:12:28.168Z,29.80
2022-10-26T12:15:00.079Z,28.30
2022-10-26T12:17:32.166Z,30.77
2022-10-26T12:20:32.137Z,28.08
2022-10-26T12:22:54.617Z,26.27
2022-10-26T12:25:16.922Z,33.50
2022-10-26T12:27:39.285Z,25.65
2022-10-26T12:30:19.951Z,23.43
2022-10-26T12:32:43.831Z,28.85
2022-10-26T12:35:43.140Z,30.35
2022-10-26T12:38:24.126Z,28.23
2022-10-26T12:40:46.487Z,26.45
2022-10-26T12:43:14.917Z,30.60
2022-10-26T12:45:37.290Z,33.35
2022-10-26T12:48:10.752Z,24.03
2022-10-26T12:50:43.433Z,29.48
2022-10-26T12:53:08.752Z,28.33
2022-10-26T12:55:46.193Z,26.35
2022-10-26T12:58:45.451Z,30.10
2022-10-26T13:01:30.911Z,32.55
2022-10-26T13:04:38.014Z,25.30
2022-10-26T13:07:27.065Z,32.22
2022-10-26T13:10:12.320Z,25.98
2022-10-26T13:12:47.782Z,28.92
2022-10-26T13:15:29.896Z,30.30
2022-10-26T13:18:22.036Z,35.83
2022-10-26T13:21:04.740Z,33.25
2022-10-26T13:23:28.568Z,27.83
2022-10-26T13:26:06.955Z,25.17
2022-10-26T13:28:38.071Z,31.45
2022-10-26T13:31:00.389Z,23.63
2022-10-26T13:33:41.390Z,27.38
2022-10-26T13:36:11.514Z,29.52
2022-10-26T13:38:34.833Z,30.92
2022-10-26T13:43:26.298Z,27.88
2022-10-26T13:45:57.809Z,31.37
2022-10-26T13:48:41.483Z,28.38
2022-10-26T13:51:25.446Z,23.95
2022-10-26T13:56:41.637Z,23.65
2022-10-26T13:59:13.397Z,28.67
2022-10-26T14:01:35.960Z,25.45
2022-10-26T14:03:58.539Z,26.13
2022-10-26T14:06:34.306Z,26.35
2022-10-26T14:09:00.305Z,28.08
2022-10-26T14:11:52.551Z,23.23
2022-10-26T14:14:30.328Z,24.65
2022-10-26T14:16:53.389Z,23.02
2022-10-26T14:19:28.133Z,26.65
2022-10-26T14:21:51.056Z,26.80
2022-10-26T14:24:27.558Z,23.02
2022-10-26T14:26:53.759Z,20.35
2022-10-26T14:29:21.377Z,23.83
2022-10-26T14:31:43.821Z,21.63
2022-10-26T14:34:06.149Z,25.73
2022-10-26T14:36:40.583Z,30.65
2022-10-26T14:39:07.920Z,22.80
2022-10-26T14:41:30.410Z,26.67
2022-10-26T14:43:59.136Z,26.38
2022-10-26T14:46:21.576Z,20.17
2022-10-26T14:48:55.989Z,20.87
2022-10-26T14:51:21.301Z,25.90
2022-10-26T14:53:52.872Z,23.13
2022-10-26T14:56:20.244Z,24.77
2022-10-26T14:58:42.736Z,25.08
2022-10-26T15:01:23.692Z,27.35
2022-10-26T15:03:46.334Z,29.35
2022-10-26T15:06:39.153Z,29.53
2022-10-26T15:09:04.464Z,22.02
2022-10-26T15:11:30.211Z,25.63
2022-10-26T15:13:53.838Z,23.83
2022-10-26T15:16:18.229Z,20.00
2022-10-26T15:18:40.611Z,22.38
2022-10-26T15:21:02.986Z,22.93
2022-10-26T15:23:26.153Z,21.87
2022-10-26T15:26:04.083Z,23.50
2022-10-26T15:28:31.395Z,25.42
2022-10-26T15:31:10.873Z,27.75
2022-10-26T15:33:33.990Z,23.77
2022-10-26T15:36:08.777Z,23.15
2022-10-26T15:38:32.075Z,24.20
2022-10-26T15:40:54.561Z,27.75
2022-10-26T15:43:16.964Z,27.67
2022-10-26T15:45:52.084Z,28.47
2022-10-26T15:48:23.468Z,35.95
2022-10-26T15:50:45.939Z,34.47
2022-10-26T15:53:13.885Z,30.80
2022-10-26T15:55:36.255Z,34.25
2022-10-26T15:57:58.715Z,41.83
2022-10-26T16:00:21.167Z,35.50
2022-10-26T16:02:45.205Z,31.83
2022-10-26T16:05:08.259Z,36.00
2022-10-26T16:07:30.626Z,31.42
2022-10-26T16:09:53.199Z,33.95
2022-10-26T16:12:15.553Z,31.02
2022-10-26T16:14:53.308Z,40.72
2022-10-26T16:17:21.062Z,37.55
2022-10-26T16:19:43.534Z,36.27
2022-10-26T16:22:05.933Z,40.10
2022-10-26T16:24:29.104Z,46.90
2022-10-26T16:26:51.441Z,70.47
2022-10-26T16:29:13.893Z,86.25
2022-10-26T16:31:36.281Z,85.13
2022-10-26T16:34:01.685Z,107.67
2022-10-26T16:36:26.459Z,86.68
2022-10-26T16:38:48.875Z,82.10
2022-10-26T16:41:16.417Z,56.25
2022-10-26T16:43:42.929Z,69.93
2022-10-26T16:46:10.733Z,76.90
2022-10-26T16:48:35.518Z,75.07
2022-10-26T16:50:57.987Z,58.25
2022-10-26T16:53:20.384Z,65.13
2022-10-26T16:55:44.172Z,84.47
2022-10-26T16:58:06.577Z,76.40
2022-10-26T17:00:29.145Z,70.30
2022-10-26T17:02:51.571Z,83.15
2022-10-26T17:05:14.089Z,71.97
2022-10-26T17:07:36.478Z,65.43
2022-10-26T17:09:58.893Z,68.27
2022-10-26T17:12:21.274Z,64.87
2022-10-26T17:14:43.749Z,69.87
2022-10-26T17:17:06.299Z,66.60
2022-10-26T17:19:28.679Z,68.60
2022-10-26T17:21:51.092Z,61.17
2022-10-26T17:24:13.754Z,73.20
2022-10-26T17:26:36.145Z,70.25
2022-10-26T17:28:58.804Z,63.23
2022-10-26T17:31:21.331Z,76.35
2022-10-26T17:33:44.463Z,56.93
2022-10-26T17:36:07.687Z,61.75
2022-10-26T17:38:34.848Z,66.28
2022-10-26T17:41:03.732Z,68.82
2022-10-26T17:43:26.170Z,58.33
2022-10-26T17:45:48.588Z,60.03
2022-10-26T17:48:10.979Z,58.00
2022-10-26T17:50:33.350Z,63.33
2022-10-26T17:52:55.916Z,61.87
2022-10-26T17:55:18.301Z,61.88
2022-10-26T17:57:40.786Z,70.43
2022-10-26T18:00:04.012Z,79.32
2022-10-26T18:02:26.656Z,67.60
2022-10-26T18:04:49.174Z,49.95
2022-10-26T18:07:12.335Z,56.77
2022-10-26T18:09:34.761Z,51.90
2022-10-26T18:11:57.168Z,55.73
2022-10-26T18:14:19.615Z,52.87
2022-10-26T18:16:42.018Z,57.33
2022-10-26T18:19:05.040Z,49.47
2022-10-26T18:21:28.213Z,51.10
2022-10-26T18:23:50.677Z,47.60
2022-10-26T18:26:28.556Z,49.90
2022-10-26T18:28:50.961Z,56.65
2022-10-26T18:31:20.227Z,55.50
2022-10-26T18:33:42.746Z,59.33
2022-10-26T18:36:08.380Z,61.28
2022-10-26T18:38:31.772Z,58.08
2022-10-26T18:40:54.211Z,61.33
2022-10-26T18:43:16.571Z,60.65
2022-10-26T18:45:38.926Z,63.67
2022-10-26T18:48:01.301Z,67.68
2022-10-26T18:50:23.670Z,55.35
2022-10-26T18:52:46.028Z,56.83
2022-10-26T18:55:09.324Z,60.72
2022-10-26T18:59:55.054Z,54.60
2022-10-26T19:02:17.738Z,60.42
2022-10-26T19:04:40.420Z,59.15
2022-10-26T19:07:02.902Z,56.78
2022-10-26T19:09:25.795Z,54.30
2022-10-26T19:11:48.416Z,52.67
2022-10-26T19:14:11.448Z,55.53
2022-10-26T19:16:45.161Z,51.25
2022-10-26T19:19:10.688Z,56.55
2022-10-26T19:21:33.316Z,62.58
2022-10-26T19:23:57.859Z,63.90
2022-10-26T19:26:22.736Z,62.78
2022-10-26T19:28:45.445Z,61.22
2022-10-26T19:31:10.096Z,68.78
2022-10-26T19:33:32.491Z,76.32
2022-10-26T19:35:55.346Z,67.97
2022-10-26T19:38:17.713Z,69.70
2022-10-26T19:40:40.143Z,81.50
2022-10-26T19:43:02.497Z,72.10
2022-10-26T19:45:24.901Z,57.90
2022-10-26T19:47:47.406Z,61.05
2022-10-26T19:50:10.361Z,61.90
2022-10-26T19:52:32.802Z,63.78
2022-10-26T19:54:55.236Z,62.53
2022-10-26T19:57:17.807Z,57.33
2022-10-26T19:59:40.218Z,62.13
2022-10-26T20:02:02.573Z,68.07
2022-10-26T20:04:24.963Z,65.82
2022-10-26T20:06:47.606Z,85.07
2022-10-26T20:09:10.111Z,115.68
2022-10-26T20:11:32.614Z,82.93
2022-10-26T20:13:56.496Z,58.85
2022-10-26T20:16:19.106Z,84.43
2022-10-26T20:18:45.761Z,69.45
2022-10-26T20:21:11.500Z,54.63
2022-10-26T20:23:33.925Z,71.70
2022-10-26T20:25:58.443Z,51.70
2022-10-26T20:28:20.803Z,52.60
2022-10-26T20:30:43.576Z,57.35
2022-10-26T20:33:06.230Z,50.20
2022-10-26T20:35:28.606Z,59.15
2022-10-26T20:37:51.875Z,83.45
2022-10-26T20:40:15.718Z,48.45
2022-10-26T20:42:38.508Z,46.65
2022-10-26T20:45:09.630Z,48.33
2022-10-26T20:47:32.586Z,46.50
2022-10-26T20:49:55.369Z,48.67
2022-10-26T20:52:22.582Z,43.45
2022-10-26T20:55:00.544Z,46.70
2022-10-26T20:57:27.804Z,50.08
2022-10-26T20:59:52.386Z,43.75
2022-10-26T21:02:14.824Z,61.28
2022-10-26T21:04:37.220Z,60.13
2022-10-26T21:06:59.569Z,49.03
2022-10-26T21:09:23.507Z,49.43
2022-10-26T21:11:46.165Z,62.40
2022-10-26T21:14:08.632Z,50.33
2022-10-26T21:16:31.045Z,57.50
2022-10-26T21:18:53.442Z,51.27
2022-10-26T21:21:15.919Z,48.60
2022-10-26T21:23:39.729Z,89.27
2022-10-26T21:26:02.181Z,50.83
2022-10-26T21:28:25.072Z,54.22
2022-10-26T21:30:47.405Z,65.55
2022-10-26T21:33:09.753Z,48.90
2022-10-26T21:35:32.105Z,65.77
2022-10-26T21:37:55.033Z,62.17
2022-10-26T21:40:17.665Z,47.53
2022-10-26T21:42:40.275Z,43.63
2022-10-26T21:45:02.793Z,55.05
2022-10-26T21:47:25.198Z,54.95
2022-10-26T21:49:47.545Z,52.10
2022-10-26T21:52:10.026Z,49.80
2022-10-26T21:54:32.372Z,45.10
2022-10-26T21:56:54.770Z,40.70
2022-10-26T21:59:17.199Z,49.37
2022-10-26T22:01:39.636Z,48.97
2022-10-26T22:04:02.087Z,38.95
2022-10-26T22:06:24.529Z,56.00
2022-10-26T22:08:47.043Z,47.17
2022-10-26T22:11:15.163Z,67.32
2022-10-26T22:13:38.251Z,34.83
2022-10-26T22:16:06.128Z,49.33
2022-10-26T22:18:28.486Z,36.58
2022-10-26T22:21:01.277Z,45.40
2022-10-26T22:23:23.662Z,41.08
2022-10-26T22:25:46.049Z,46.90
2022-10-26T22:28:08.379Z,40.73
2022-10-26T22:30:30.715Z,44.03
2022-10-26T22:32:53.342Z,60.03
2022-10-26T22:35:28.969Z,54.78
2022-10-26T22:37:52.214Z,48.90
2022-10-26T22:40:14.669Z,44.15
2022-10-26T22:42:37.073Z,48.60
2022-10-26T22:44:59.417Z,57.53
2022-10-26T22:47:21.814Z,51.63
2022-10-26T22:49:44.142Z,41.90
2022-10-26T22:52:06.617Z,52.22
2022-10-26T22:54:29.000Z,43.97
2022-10-26T22:56:51.316Z,52.00
2022-10-26T22:59:13.727Z,42.08
2022-10-26T23:01:41.754Z,42.42
2022-10-26T23:04:04.611Z,45.80
2022-10-26T23:06:29.161Z,40.75
2022-10-26T23:08:51.525Z,47.42
2022-10-26T23:11:16.878Z,45.57
2022-10-26T23:13:39.212Z,62.75
2022-10-26T23:16:12.500Z,47.83
2022-10-26T23:18:35.114Z,45.15
2022-10-26T23:20:57.487Z,57.53
2022-10-26T23:23:19.833Z,54.17
2022-10-26T23:25:42.244Z,51.22
2022-10-26T23:28:04.800Z,47.03
2022-10-26T23:30:27.137Z,42.55
2022-10-26T23:32:49.865Z,44.58
2022-10-26T23:35:12.526Z,42.72
2022-10-26T23:37:34.870Z,44.83
2022-10-26T23:39:57.245Z,48.23
2022-10-26T23:42:19.622Z,54.57
2022-10-26T23:44:41.986Z,52.53
2022-10-26T23:47:04.374Z,43.20
2022-10-26T23:49:26.715Z,55.40
2022-10-26T23:51:49.074Z,47.27
2022-10-26T23:54:11.419Z,51.80
2022-10-26T23:56:33.793Z,51.17
2022-10-26T23:58:56.214Z,46.70
